sensor_id;sensor_type;location;lat;lon;timestamp;temperature;humidity
9975;DHT22;5028;50.974;4.968;2023-12-20T00:01:12;6.20;99.90
9975;DHT22;5028;50.974;4.968;2023-12-20T00:03:41;6.20;99.90
9975;DHT22;5028;50.974;4.968;2023-12-20T00:06:10;6.20;99.90
9975;DHT22;5028;50.974;4.968;2023-12-20T00:08:39;6.20;99.90
9975;DHT22;5028;50.974;4.968;2023-12-20T00:11:07;6.10;99.90
9975;DHT22;5028;50.974;4.968;2023-12-20T00:13:36;6.10;99.90
9975;DHT22;5028;50.974;4.968;2023-12-20T00:16:05;6.10;99.90
9975;DHT22;5028;50.974;4.968;2023-12-20T00:18:34;6.00;99.90
9975;DHT22;5028;50.974;4.968;2023-12-20T00:21:04;6.00;99.90
9975;DHT22;5028;50.974;4.968;2023-12-20T00:23:33;5.90;99.90
9975;DHT22;5028;50.974;4.968;2023-12-20T00:26:02;5.90;99.90
9975;DHT22;5028;50.974;4.968;2023-12-20T00:28:31;5.90;99.90
9975;DHT22;5028;50.974;4.968;2023-12-20T00:31:00;5.80;99.90
9975;DHT22;5028;50.974;4.968;2023-12-20T00:33:29;5.90;99.90
9975;DHT22;5028;50.974;4.968;2023-12-20T00:35:57;5.90;99.90
9975;DHT22;5028;50.974;4.968;2023-12-20T00:38:28;5.90;99.90
9975;DHT22;5028;50.974;4.968;2023-12-20T00:40:56;5.90;99.90
9975;DHT22;5028;50.974;4.968;2023-12-20T00:43:24;6.00;99.90
9975;DHT22;5028;50.974;4.968;2023-12-20T00:45:57;6.00;99.90
9975;DHT22;5028;50.974;4.968;2023-12-20T00:48:27;6.00;99.90
9975;DHT22;5028;50.974;4.968;2023-12-20T00:50:57;6.00;99.90
9975;DHT22;5028;50.974;4.968;2023-12-20T00:53:27;6.00;99.90
9975;DHT22;5028;50.974;4.968;2023-12-20T00:55:56;6.00;99.90
9975;DHT22;5028;50.974;4.968;2023-12-20T00:58:27;5.90;99.90
9975;DHT22;5028;50.974;4.968;2023-12-20T01:00:55;5.90;99.90
9975;DHT22;5028;50.974;4.968;2023-12-20T01:03:25;5.80;99.90
9975;DHT22;5028;50.974;4.968;2023-12-20T01:05:53;5.90;99.90
9975;DHT22;5028;50.974;4.968;2023-12-20T01:08:22;5.90;99.90
9975;DHT22;5028;50.974;4.968;2023-12-20T01:10:52;5.90;99.90
9975;DHT22;5028;50.974;4.968;2023-12-20T01:13:21;5.80;99.90
9975;DHT22;5028;50.974;4.968;2023-12-20T01:15:49;5.70;99.90
9975;DHT22;5028;50.974;4.968;2023-12-20T01:18:18;5.70;99.90
9975;DHT22;5028;50.974;4.968;2023-12-20T01:20:46;5.70;99.90
9975;DHT22;5028;50.974;4.968;2023-12-20T01:23:15;5.60;99.90
9975;DHT22;5028;50.974;4.968;2023-12-20T01:25:43;5.60;99.90
9975;DHT22;5028;50.974;4.968;2023-12-20T01:28:13;5.60;99.90
9975;DHT22;5028;50.974;4.968;2023-12-20T01:30:42;5.50;99.90
9975;DHT22;5028;50.974;4.968;2023-12-20T01:33:11;5.50;99.90
9975;DHT22;5028;50.974;4.968;2023-12-20T01:35:40;5.50;99.90
9975;DHT22;5028;50.974;4.968;2023-12-20T01:38:09;5.50;99.90
9975;DHT22;5028;50.974;4.968;2023-12-20T01:40:37;5.50;99.90
9975;DHT22;5028;50.974;4.968;2023-12-20T01:43:08;5.50;99.90
9975;DHT22;5028;50.974;4.968;2023-12-20T01:45:40;5.50;99.90
9975;DHT22;5028;50.974;4.968;2023-12-20T01:48:09;5.40;99.90
9975;DHT22;5028;50.974;4.968;2023-12-20T01:50:38;5.40;99.90
9975;DHT22;5028;50.974;4.968;2023-12-20T01:53:09;5.40;99.90
9975;DHT22;5028;50.974;4.968;2023-12-20T01:55:40;5.40;99.90
9975;DHT22;5028;50.974;4.968;2023-12-20T01:58:09;5.40;99.90
9975;DHT22;5028;50.974;4.968;2023-12-20T02:00:40;5.40;99.90
9975;DHT22;5028;50.974;4.968;2023-12-20T02:03:09;5.30;99.90
9975;DHT22;5028;50.974;4.968;2023-12-20T02:05:38;5.30;99.90
9975;DHT22;5028;50.974;4.968;2023-12-20T02:08:07;5.30;99.90
9975;DHT22;5028;50.974;4.968;2023-12-20T02:10:36;5.30;99.90
9975;DHT22;5028;50.974;4.968;2023-12-20T02:13:04;5.30;99.90
9975;DHT22;5028;50.974;4.968;2023-12-20T02:15:33;5.30;99.90
9975;DHT22;5028;50.974;4.968;2023-12-20T02:18:06;5.30;99.90
9975;DHT22;5028;50.974;4.968;2023-12-20T02:20:34;5.20;99.90
9975;DHT22;5028;50.974;4.968;2023-12-20T02:23:04;5.30;99.90
9975;DHT22;5028;50.974;4.968;2023-12-20T02:25:32;5.20;99.90
9975;DHT22;5028;50.974;4.968;2023-12-20T02:28:01;5.30;99.90
9975;DHT22;5028;50.974;4.968;2023-12-20T02:30:32;5.30;99.90
9975;DHT22;5028;50.974;4.968;2023-12-20T02:33:01;5.20;99.90
9975;DHT22;5028;50.974;4.968;2023-12-20T02:35:31;5.20;99.90
9975;DHT22;5028;50.974;4.968;2023-12-20T02:38:00;5.20;99.90
9975;DHT22;5028;50.974;4.968;2023-12-20T02:40:30;5.20;99.90
9975;DHT22;5028;50.974;4.968;2023-12-20T02:42:59;5.20;99.90
9975;DHT22;5028;50.974;4.968;2023-12-20T02:45:28;5.20;99.90
9975;DHT22;5028;50.974;4.968;2023-12-20T02:47:57;5.20;99.90
9975;DHT22;5028;50.974;4.968;2023-12-20T02:50:25;5.20;99.90
9975;DHT22;5028;50.974;4.968;2023-12-20T02:52:54;5.20;99.90
9975;DHT22;5028;50.974;4.968;2023-12-20T02:55:23;5.30;99.90
9975;DHT22;5028;50.974;4.968;2023-12-20T02:57:54;5.30;99.90
9975;DHT22;5028;50.974;4.968;2023-12-20T03:00:22;5.40;99.90
9975;DHT22;5028;50.974;4.968;2023-12-20T03:02:51;5.40;99.90
9975;DHT22;5028;50.974;4.968;2023-12-20T03:05:19;5.50;99.90
9975;DHT22;5028;50.974;4.968;2023-12-20T03:07:48;5.40;99.90
9975;DHT22;5028;50.974;4.968;2023-12-20T03:10:18;5.50;99.90
9975;DHT22;5028;50.974;4.968;2023-12-20T03:12:54;5.50;99.90
9975;DHT22;5028;50.974;4.968;2023-12-20T03:15:23;5.50;99.90
9975;DHT22;5028;50.974;4.968;2023-12-20T03:17:51;5.50;99.90
9975;DHT22;5028;50.974;4.968;2023-12-20T03:20:20;5.50;99.90
9975;DHT22;5028;50.974;4.968;2023-12-20T03:22:49;5.50;99.90
9975;DHT22;5028;50.974;4.968;2023-12-20T03:25:18;5.50;99.90
9975;DHT22;5028;50.974;4.968;2023-12-20T03:27:46;5.50;99.90
9975;DHT22;5028;50.974;4.968;2023-12-20T03:30:17;5.60;99.90
9975;DHT22;5028;50.974;4.968;2023-12-20T03:32:47;5.60;99.90
9975;DHT22;5028;50.974;4.968;2023-12-20T03:35:15;5.60;99.90
9975;DHT22;5028;50.974;4.968;2023-12-20T03:37:44;5.60;99.90
9975;DHT22;5028;50.974;4.968;2023-12-20T03:40:13;5.60;99.90
9975;DHT22;5028;50.974;4.968;2023-12-20T03:42:41;5.70;99.90
9975;DHT22;5028;50.974;4.968;2023-12-20T03:45:10;5.70;99.90
9975;DHT22;5028;50.974;4.968;2023-12-20T03:47:40;5.70;99.90
9975;DHT22;5028;50.974;4.968;2023-12-20T03:50:09;5.80;99.90
9975;DHT22;5028;50.974;4.968;2023-12-20T03:52:38;5.80;99.90
9975;DHT22;5028;50.974;4.968;2023-12-20T03:55:06;5.80;99.90
9975;DHT22;5028;50.974;4.968;2023-12-20T03:57:35;5.90;99.90
9975;DHT22;5028;50.974;4.968;2023-12-20T04:00:04;5.80;99.90
9975;DHT22;5028;50.974;4.968;2023-12-20T04:02:37;5.90;99.90
9975;DHT22;5028;50.974;4.968;2023-12-20T04:05:09;5.90;99.90
9975;DHT22;5028;50.974;4.968;2023-12-20T04:07:38;5.90;99.90
9975;DHT22;5028;50.974;4.968;2023-12-20T04:10:07;5.90;99.90
9975;DHT22;5028;50.974;4.968;2023-12-20T04:12:36;5.90;99.90
9975;DHT22;5028;50.974;4.968;2023-12-20T04:15:05;5.90;99.90
9975;DHT22;5028;50.974;4.968;2023-12-20T04:17:36;5.90;99.90
9975;DHT22;5028;50.974;4.968;2023-12-20T04:20:09;5.90;99.90
9975;DHT22;5028;50.974;4.968;2023-12-20T04:22:38;5.90;99.90
9975;DHT22;5028;50.974;4.968;2023-12-20T04:25:07;5.90;99.90
9975;DHT22;5028;50.974;4.968;2023-12-20T04:27:35;5.90;99.90
9975;DHT22;5028;50.974;4.968;2023-12-20T04:30:05;5.90;99.90
9975;DHT22;5028;50.974;4.968;2023-12-20T04:32:34;5.90;99.90
9975;DHT22;5028;50.974;4.968;2023-12-20T04:35:04;5.90;99.90
9975;DHT22;5028;50.974;4.968;2023-12-20T04:37:34;5.80;99.90
9975;DHT22;5028;50.974;4.968;2023-12-20T04:40:04;5.80;99.90
9975;DHT22;5028;50.974;4.968;2023-12-20T04:42:34;5.80;99.90
9975;DHT22;5028;50.974;4.968;2023-12-20T04:45:04;5.80;99.90
9975;DHT22;5028;50.974;4.968;2023-12-20T04:47:32;5.70;99.90
9975;DHT22;5028;50.974;4.968;2023-12-20T04:50:01;5.70;99.90
9975;DHT22;5028;50.974;4.968;2023-12-20T04:52:30;5.70;99.90
9975;DHT22;5028;50.974;4.968;2023-12-20T04:54:59;5.70;99.90
9975;DHT22;5028;50.974;4.968;2023-12-20T04:57:28;5.70;99.90
9975;DHT22;5028;50.974;4.968;2023-12-20T04:59:57;5.60;99.90
9975;DHT22;5028;50.974;4.968;2023-12-20T05:02:26;5.60;99.90
9975;DHT22;5028;50.974;4.968;2023-12-20T05:04:55;5.60;99.90
9975;DHT22;5028;50.974;4.968;2023-12-20T05:07:23;5.50;99.90
9975;DHT22;5028;50.974;4.968;2023-12-20T05:09:52;5.50;99.90
9975;DHT22;5028;50.974;4.968;2023-12-20T05:12:22;5.60;99.90
9975;DHT22;5028;50.974;4.968;2023-12-20T05:14:52;5.60;99.90
9975;DHT22;5028;50.974;4.968;2023-12-20T05:17:20;5.60;99.90
9975;DHT22;5028;50.974;4.968;2023-12-20T05:19:49;5.60;99.90
9975;DHT22;5028;50.974;4.968;2023-12-20T05:22:19;5.60;99.90
9975;DHT22;5028;50.974;4.968;2023-12-20T05:24:47;5.60;99.90
9975;DHT22;5028;50.974;4.968;2023-12-20T05:27:16;5.50;99.90
9975;DHT22;5028;50.974;4.968;2023-12-20T05:29:46;5.50;99.90
9975;DHT22;5028;50.974;4.968;2023-12-20T05:32:14;5.50;99.90
9975;DHT22;5028;50.974;4.968;2023-12-20T05:34:43;5.50;99.90
9975;DHT22;5028;50.974;4.968;2023-12-20T05:37:12;5.50;99.90
9975;DHT22;5028;50.974;4.968;2023-12-20T05:39:40;5.50;99.90
9975;DHT22;5028;50.974;4.968;2023-12-20T05:42:09;5.50;99.90
9975;DHT22;5028;50.974;4.968;2023-12-20T05:44:38;5.40;99.90
9975;DHT22;5028;50.974;4.968;2023-12-20T05:47:08;5.40;99.90
9975;DHT22;5028;50.974;4.968;2023-12-20T05:49:36;5.40;99.90
9975;DHT22;5028;50.974;4.968;2023-12-20T05:52:05;5.30;99.90
9975;DHT22;5028;50.974;4.968;2023-12-20T05:54:34;5.30;99.90
9975;DHT22;5028;50.974;4.968;2023-12-20T05:57:03;5.30;99.90
9975;DHT22;5028;50.974;4.968;2023-12-20T05:59:31;5.30;99.90
9975;DHT22;5028;50.974;4.968;2023-12-20T06:02:03;5.20;99.90
9975;DHT22;5028;50.974;4.968;2023-12-20T06:04:34;5.20;99.90
9975;DHT22;5028;50.974;4.968;2023-12-20T06:07:02;5.20;99.90
9975;DHT22;5028;50.974;4.968;2023-12-20T06:09:32;5.20;99.90
9975;DHT22;5028;50.974;4.968;2023-12-20T06:12:01;5.20;99.90
9975;DHT22;5028;50.974;4.968;2023-12-20T06:14:29;5.10;99.90
9975;DHT22;5028;50.974;4.968;2023-12-20T06:16:59;5.10;99.90
9975;DHT22;5028;50.974;4.968;2023-12-20T06:19:28;5.20;99.90
9975;DHT22;5028;50.974;4.968;2023-12-20T06:22:00;5.20;99.90
9975;DHT22;5028;50.974;4.968;2023-12-20T06:24:29;5.20;99.90
9975;DHT22;5028;50.974;4.968;2023-12-20T06:27:00;5.30;99.90
9975;DHT22;5028;50.974;4.968;2023-12-20T06:29:29;5.30;99.90
9975;DHT22;5028;50.974;4.968;2023-12-20T06:31:59;5.30;99.90
9975;DHT22;5028;50.974;4.968;2023-12-20T06:34:28;5.30;99.90
9975;DHT22;5028;50.974;4.968;2023-12-20T06:36:58;5.30;99.90
9975;DHT22;5028;50.974;4.968;2023-12-20T06:39:27;5.30;99.90
9975;DHT22;5028;50.974;4.968;2023-12-20T06:41:58;5.30;99.90
9975;DHT22;5028;50.974;4.968;2023-12-20T06:44:26;5.40;99.90
9975;DHT22;5028;50.974;4.968;2023-12-20T06:46:55;5.40;99.90
9975;DHT22;5028;50.974;4.968;2023-12-20T06:49:25;5.40;99.90
9975;DHT22;5028;50.974;4.968;2023-12-20T06:51:54;5.50;99.90
9975;DHT22;5028;50.974;4.968;2023-12-20T06:54:25;5.50;99.90
9975;DHT22;5028;50.974;4.968;2023-12-20T06:56:54;5.50;99.90
9975;DHT22;5028;50.974;4.968;2023-12-20T06:59:23;5.40;99.90
9975;DHT22;5028;50.974;4.968;2023-12-20T07:01:51;5.40;99.90
9975;DHT22;5028;50.974;4.968;2023-12-20T07:04:20;5.40;99.90
9975;DHT22;5028;50.974;4.968;2023-12-20T07:06:50;5.30;99.90
9975;DHT22;5028;50.974;4.968;2023-12-20T07:09:25;5.30;99.90
9975;DHT22;5028;50.974;4.968;2023-12-20T07:11:54;5.20;99.90
9975;DHT22;5028;50.974;4.968;2023-12-20T07:14:22;5.30;99.90
9975;DHT22;5028;50.974;4.968;2023-12-20T07:16:52;5.20;99.90
9975;DHT22;5028;50.974;4.968;2023-12-20T07:19:20;5.20;99.90
9975;DHT22;5028;50.974;4.968;2023-12-20T07:21:50;5.20;99.90
9975;DHT22;5028;50.974;4.968;2023-12-20T07:24:20;5.20;99.90
9975;DHT22;5028;50.974;4.968;2023-12-20T07:26:51;5.10;99.90
9975;DHT22;5028;50.974;4.968;2023-12-20T07:29:20;5.10;99.90
9975;DHT22;5028;50.974;4.968;2023-12-20T07:31:48;5.10;99.90
9975;DHT22;5028;50.974;4.968;2023-12-20T07:34:19;5.10;99.90
9975;DHT22;5028;50.974;4.968;2023-12-20T07:36:50;5.00;99.90
9975;DHT22;5028;50.974;4.968;2023-12-20T07:39:18;5.10;99.90
9975;DHT22;5028;50.974;4.968;2023-12-20T07:41:47;5.00;99.90
9975;DHT22;5028;50.974;4.968;2023-12-20T07:44:17;5.00;99.90
9975;DHT22;5028;50.974;4.968;2023-12-20T07:46:46;5.00;99.90
9975;DHT22;5028;50.974;4.968;2023-12-20T07:49:16;5.00;99.90
9975;DHT22;5028;50.974;4.968;2023-12-20T07:51:45;5.00;99.90
9975;DHT22;5028;50.974;4.968;2023-12-20T07:54:14;5.00;99.90
9975;DHT22;5028;50.974;4.968;2023-12-20T07:56:43;5.00;99.90
9975;DHT22;5028;50.974;4.968;2023-12-20T07:59:11;5.10;99.90
9975;DHT22;5028;50.974;4.968;2023-12-20T08:01:56;5.00;99.90
9975;DHT22;5028;50.974;4.968;2023-12-20T08:04:25;5.00;99.90
9975;DHT22;5028;50.974;4.968;2023-12-20T08:06:54;5.00;99.90
9975;DHT22;5028;50.974;4.968;2023-12-20T08:09:23;5.10;99.90
9975;DHT22;5028;50.974;4.968;2023-12-20T08:11:53;5.00;99.90
9975;DHT22;5028;50.974;4.968;2023-12-20T08:14:22;5.00;99.90
9975;DHT22;5028;50.974;4.968;2023-12-20T08:16:51;5.00;99.90
9975;DHT22;5028;50.974;4.968;2023-12-20T08:19:22;5.00;99.90
9975;DHT22;5028;50.974;4.968;2023-12-20T08:21:53;5.10;99.90
9975;DHT22;5028;50.974;4.968;2023-12-20T08:24:21;5.10;99.90
9975;DHT22;5028;50.974;4.968;2023-12-20T08:26:50;5.10;99.90
9975;DHT22;5028;50.974;4.968;2023-12-20T08:29:19;5.10;99.90
9975;DHT22;5028;50.974;4.968;2023-12-20T08:31:52;5.10;99.90
9975;DHT22;5028;50.974;4.968;2023-12-20T08:34:23;5.10;99.90
9975;DHT22;5028;50.974;4.968;2023-12-20T08:36:52;5.20;99.90
9975;DHT22;5028;50.974;4.968;2023-12-20T08:39:23;5.30;99.90
9975;DHT22;5028;50.974;4.968;2023-12-20T08:41:56;5.30;99.90
9975;DHT22;5028;50.974;4.968;2023-12-20T08:44:25;5.30;99.90
9975;DHT22;5028;50.974;4.968;2023-12-20T08:46:54;5.40;99.90
9975;DHT22;5028;50.974;4.968;2023-12-20T08:49:27;5.40;99.90
9975;DHT22;5028;50.974;4.968;2023-12-20T08:51:56;5.40;99.90
9975;DHT22;5028;50.974;4.968;2023-12-20T08:54:24;5.40;99.90
9975;DHT22;5028;50.974;4.968;2023-12-20T08:56:53;5.40;99.90
9975;DHT22;5028;50.974;4.968;2023-12-20T08:59:22;5.40;99.90
9975;DHT22;5028;50.974;4.968;2023-12-20T09:01:52;5.40;99.90
9975;DHT22;5028;50.974;4.968;2023-12-20T09:04:23;5.40;99.90
9975;DHT22;5028;50.974;4.968;2023-12-20T09:06:54;5.40;99.90
9975;DHT22;5028;50.974;4.968;2023-12-20T09:09:22;5.40;99.90
9975;DHT22;5028;50.974;4.968;2023-12-20T09:11:51;5.50;99.90
9975;DHT22;5028;50.974;4.968;2023-12-20T09:14:20;5.50;99.90
9975;DHT22;5028;50.974;4.968;2023-12-20T09:16:49;5.60;99.90
9975;DHT22;5028;50.974;4.968;2023-12-20T09:19:18;5.60;99.90
9975;DHT22;5028;50.974;4.968;2023-12-20T09:21:50;5.70;99.90
9975;DHT22;5028;50.974;4.968;2023-12-20T09:24:20;5.70;99.90
9975;DHT22;5028;50.974;4.968;2023-12-20T09:26:58;5.80;99.90
9975;DHT22;5028;50.974;4.968;2023-12-20T09:29:27;5.80;99.90
9975;DHT22;5028;50.974;4.968;2023-12-20T09:31:56;5.80;99.90
9975;DHT22;5028;50.974;4.968;2023-12-20T09:34:25;5.90;99.90
9975;DHT22;5028;50.974;4.968;2023-12-20T09:36:55;5.90;99.90
9975;DHT22;5028;50.974;4.968;2023-12-20T09:39:25;6.00;99.90
9975;DHT22;5028;50.974;4.968;2023-12-20T09:42:02;6.00;99.90
9975;DHT22;5028;50.974;4.968;2023-12-20T09:44:31;6.10;99.90
9975;DHT22;5028;50.974;4.968;2023-12-20T09:47:03;6.10;99.90
9975;DHT22;5028;50.974;4.968;2023-12-20T09:49:33;6.10;99.90
9975;DHT22;5028;50.974;4.968;2023-12-20T09:52:03;6.10;99.90
9975;DHT22;5028;50.974;4.968;2023-12-20T09:54:34;6.20;99.90
9975;DHT22;5028;50.974;4.968;2023-12-20T09:57:04;6.20;99.90
9975;DHT22;5028;50.974;4.968;2023-12-20T09:59:33;6.20;99.90
9975;DHT22;5028;50.974;4.968;2023-12-20T10:02:04;6.20;99.90
9975;DHT22;5028;50.974;4.968;2023-12-20T10:04:39;6.20;99.90
9975;DHT22;5028;50.974;4.968;2023-12-20T10:07:10;6.30;99.90
9975;DHT22;5028;50.974;4.968;2023-12-20T10:09:42;6.30;99.90
9975;DHT22;5028;50.974;4.968;2023-12-20T10:12:11;6.40;99.90
9975;DHT22;5028;50.974;4.968;2023-12-20T10:14:39;6.50;99.90
9975;DHT22;5028;50.974;4.968;2023-12-20T10:17:08;6.50;99.90
9975;DHT22;5028;50.974;4.968;2023-12-20T10:19:37;6.50;99.90
9975;DHT22;5028;50.974;4.968;2023-12-20T10:22:06;6.50;99.90
9975;DHT22;5028;50.974;4.968;2023-12-20T10:24:37;6.50;99.90
9975;DHT22;5028;50.974;4.968;2023-12-20T10:27:08;6.50;99.90
9975;DHT22;5028;50.974;4.968;2023-12-20T10:29:39;6.50;99.90
9975;DHT22;5028;50.974;4.968;2023-12-20T10:32:24;6.60;99.90
9975;DHT22;5028;50.974;4.968;2023-12-20T10:34:54;6.60;99.90
9975;DHT22;5028;50.974;4.968;2023-12-20T10:37:23;6.70;99.90
9975;DHT22;5028;50.974;4.968;2023-12-20T10:39:54;6.70;99.90
9975;DHT22;5028;50.974;4.968;2023-12-20T10:42:27;6.80;99.90
9975;DHT22;5028;50.974;4.968;2023-12-20T10:44:56;6.80;99.90
9975;DHT22;5028;50.974;4.968;2023-12-20T10:47:25;6.80;99.90
9975;DHT22;5028;50.974;4.968;2023-12-20T10:49:54;6.80;99.90
9975;DHT22;5028;50.974;4.968;2023-12-20T10:52:26;6.80;99.90
9975;DHT22;5028;50.974;4.968;2023-12-20T10:54:56;6.80;99.90
9975;DHT22;5028;50.974;4.968;2023-12-20T10:57:27;6.80;99.90
9975;DHT22;5028;50.974;4.968;2023-12-20T11:00:01;6.90;99.90
9975;DHT22;5028;50.974;4.968;2023-12-20T11:02:32;6.90;99.90
9975;DHT22;5028;50.974;4.968;2023-12-20T11:05:10;6.90;99.90
9975;DHT22;5028;50.974;4.968;2023-12-20T11:07:44;6.90;99.90
9975;DHT22;5028;50.974;4.968;2023-12-20T11:10:20;7.00;99.90
9975;DHT22;5028;50.974;4.968;2023-12-20T11:12:57;7.00;99.90
9975;DHT22;5028;50.974;4.968;2023-12-20T11:15:30;7.20;99.90
9975;DHT22;5028;50.974;4.968;2023-12-20T11:18:01;7.20;99.90
9975;DHT22;5028;50.974;4.968;2023-12-20T11:20:36;7.20;99.90
9975;DHT22;5028;50.974;4.968;2023-12-20T11:23:06;7.30;99.90
9975;DHT22;5028;50.974;4.968;2023-12-20T11:25:49;7.30;99.90
9975;DHT22;5028;50.974;4.968;2023-12-20T11:28:23;7.30;99.90
9975;DHT22;5028;50.974;4.968;2023-12-20T11:30:52;7.30;99.90
9975;DHT22;5028;50.974;4.968;2023-12-20T11:33:23;7.30;99.90
9975;DHT22;5028;50.974;4.968;2023-12-20T11:35:56;7.30;99.90
9975;DHT22;5028;50.974;4.968;2023-12-20T11:38:27;7.30;99.90
9975;DHT22;5028;50.974;4.968;2023-12-20T11:40:56;7.30;99.90
9975;DHT22;5028;50.974;4.968;2023-12-20T11:43:35;7.30;99.90
9975;DHT22;5028;50.974;4.968;2023-12-20T11:46:05;7.20;99.90
9975;DHT22;5028;50.974;4.968;2023-12-20T11:48:35;7.30;99.90
9975;DHT22;5028;50.974;4.968;2023-12-20T11:51:09;7.20;99.90
9975;DHT22;5028;50.974;4.968;2023-12-20T11:53:37;7.20;99.90
9975;DHT22;5028;50.974;4.968;2023-12-20T11:56:06;7.20;99.90
9975;DHT22;5028;50.974;4.968;2023-12-20T11:58:38;7.30;99.90
9975;DHT22;5028;50.974;4.968;2023-12-20T12:01:08;7.30;99.90
9975;DHT22;5028;50.974;4.968;2023-12-20T12:03:38;7.20;99.90
9975;DHT22;5028;50.974;4.968;2023-12-20T12:06:07;7.20;99.90
9975;DHT22;5028;50.974;4.968;2023-12-20T12:08:40;7.20;99.90
9975;DHT22;5028;50.974;4.968;2023-12-20T12:11:09;7.20;99.90
9975;DHT22;5028;50.974;4.968;2023-12-20T12:13:40;7.10;99.90
9975;DHT22;5028;50.974;4.968;2023-12-20T12:16:10;7.10;99.90
9975;DHT22;5028;50.974;4.968;2023-12-20T12:18:39;7.00;99.90
9975;DHT22;5028;50.974;4.968;2023-12-20T12:21:09;7.10;99.90
9975;DHT22;5028;50.974;4.968;2023-12-20T12:23:48;7.10;99.90
9975;DHT22;5028;50.974;4.968;2023-12-20T12:26:16;7.10;99.90
9975;DHT22;5028;50.974;4.968;2023-12-20T12:28:46;7.10;99.90
9975;DHT22;5028;50.974;4.968;2023-12-20T12:31:15;7.10;99.90
9975;DHT22;5028;50.974;4.968;2023-12-20T12:33:44;7.10;99.90
9975;DHT22;5028;50.974;4.968;2023-12-20T12:36:16;7.10;99.90
9975;DHT22;5028;50.974;4.968;2023-12-20T12:38:45;7.10;99.90
9975;DHT22;5028;50.974;4.968;2023-12-20T12:41:13;7.10;99.90
9975;DHT22;5028;50.974;4.968;2023-12-20T12:43:43;7.10;99.90
9975;DHT22;5028;50.974;4.968;2023-12-20T12:46:14;7.20;99.90
9975;DHT22;5028;50.974;4.968;2023-12-20T12:48:42;7.20;99.90
9975;DHT22;5028;50.974;4.968;2023-12-20T12:51:13;7.20;99.90
9975;DHT22;5028;50.974;4.968;2023-12-20T12:53:42;7.20;99.90
9975;DHT22;5028;50.974;4.968;2023-12-20T12:56:12;7.20;99.90
9975;DHT22;5028;50.974;4.968;2023-12-20T12:58:41;7.20;99.90
9975;DHT22;5028;50.974;4.968;2023-12-20T13:01:18;7.20;99.90
9975;DHT22;5028;50.974;4.968;2023-12-20T13:03:47;7.20;99.90
9975;DHT22;5028;50.974;4.968;2023-12-20T13:06:16;7.30;99.90
9975;DHT22;5028;50.974;4.968;2023-12-20T13:08:45;7.30;99.90
9975;DHT22;5028;50.974;4.968;2023-12-20T13:11:14;7.30;99.90
9975;DHT22;5028;50.974;4.968;2023-12-20T13:13:43;7.30;99.90
9975;DHT22;5028;50.974;4.968;2023-12-20T13:16:12;7.30;99.90
9975;DHT22;5028;50.974;4.968;2023-12-20T13:18:43;7.30;99.90
9975;DHT22;5028;50.974;4.968;2023-12-20T13:21:12;7.30;99.90
9975;DHT22;5028;50.974;4.968;2023-12-20T13:23:45;7.30;99.90
9975;DHT22;5028;50.974;4.968;2023-12-20T13:26:14;7.40;99.90
9975;DHT22;5028;50.974;4.968;2023-12-20T13:28:44;7.40;99.90
9975;DHT22;5028;50.974;4.968;2023-12-20T13:31:13;7.40;99.90
9975;DHT22;5028;50.974;4.968;2023-12-20T13:33:45;7.40;99.90
9975;DHT22;5028;50.974;4.968;2023-12-20T13:36:13;7.40;99.90
9975;DHT22;5028;50.974;4.968;2023-12-20T13:38:43;7.40;99.90
9975;DHT22;5028;50.974;4.968;2023-12-20T13:41:11;7.40;99.90
9975;DHT22;5028;50.974;4.968;2023-12-20T13:43:40;7.40;99.90
9975;DHT22;5028;50.974;4.968;2023-12-20T13:46:09;7.40;99.90
9975;DHT22;5028;50.974;4.968;2023-12-20T13:48:38;7.40;99.90
9975;DHT22;5028;50.974;4.968;2023-12-20T13:51:08;7.40;99.90
9975;DHT22;5028;50.974;4.968;2023-12-20T13:53:37;7.50;99.90
9975;DHT22;5028;50.974;4.968;2023-12-20T13:56:06;7.50;99.90
9975;DHT22;5028;50.974;4.968;2023-12-20T13:58:35;7.50;99.90
9975;DHT22;5028;50.974;4.968;2023-12-20T14:01:04;7.50;99.90
9975;DHT22;5028;50.974;4.968;2023-12-20T14:03:34;7.50;99.90
9975;DHT22;5028;50.974;4.968;2023-12-20T14:06:02;7.50;99.90
9975;DHT22;5028;50.974;4.968;2023-12-20T14:08:34;7.60;99.90
9975;DHT22;5028;50.974;4.968;2023-12-20T14:11:03;7.60;99.90
9975;DHT22;5028;50.974;4.968;2023-12-20T14:13:31;7.60;99.90
9975;DHT22;5028;50.974;4.968;2023-12-20T14:16:00;7.60;99.90
9975;DHT22;5028;50.974;4.968;2023-12-20T14:18:31;7.60;99.90
9975;DHT22;5028;50.974;4.968;2023-12-20T14:20:59;7.60;99.90
9975;DHT22;5028;50.974;4.968;2023-12-20T14:23:29;7.60;99.90
9975;DHT22;5028;50.974;4.968;2023-12-20T14:25:59;7.60;99.90
9975;DHT22;5028;50.974;4.968;2023-12-20T14:28:29;7.70;99.90
9975;DHT22;5028;50.974;4.968;2023-12-20T14:30:57;7.70;99.90
9975;DHT22;5028;50.974;4.968;2023-12-20T14:33:26;7.70;99.90
9975;DHT22;5028;50.974;4.968;2023-12-20T14:35:55;7.70;99.90
9975;DHT22;5028;50.974;4.968;2023-12-20T14:38:24;7.70;99.90
9975;DHT22;5028;50.974;4.968;2023-12-20T14:40:55;7.70;99.90
9975;DHT22;5028;50.974;4.968;2023-12-20T14:43:26;7.70;99.90
9975;DHT22;5028;50.974;4.968;2023-12-20T14:45:56;7.70;99.90
9975;DHT22;5028;50.974;4.968;2023-12-20T14:48:25;7.70;99.90
9975;DHT22;5028;50.974;4.968;2023-12-20T14:50:55;7.70;99.90
9975;DHT22;5028;50.974;4.968;2023-12-20T14:53:23;7.70;99.90
9975;DHT22;5028;50.974;4.968;2023-12-20T14:55:52;7.70;99.90
9975;DHT22;5028;50.974;4.968;2023-12-20T14:58:25;7.70;99.90
9975;DHT22;5028;50.974;4.968;2023-12-20T15:00:54;7.80;99.90
9975;DHT22;5028;50.974;4.968;2023-12-20T15:03:24;7.80;99.90
9975;DHT22;5028;50.974;4.968;2023-12-20T15:05:52;7.80;99.90
9975;DHT22;5028;50.974;4.968;2023-12-20T15:08:21;7.80;99.90
9975;DHT22;5028;50.974;4.968;2023-12-20T15:10:52;7.80;99.90
9975;DHT22;5028;50.974;4.968;2023-12-20T15:13:21;7.80;99.90
9975;DHT22;5028;50.974;4.968;2023-12-20T15:15:52;7.80;99.90
9975;DHT22;5028;50.974;4.968;2023-12-20T15:18:21;7.80;99.90
9975;DHT22;5028;50.974;4.968;2023-12-20T15:20:51;7.80;99.90
9975;DHT22;5028;50.974;4.968;2023-12-20T15:23:19;7.80;99.90
9975;DHT22;5028;50.974;4.968;2023-12-20T15:25:49;7.80;99.90
9975;DHT22;5028;50.974;4.968;2023-12-20T15:28:17;7.90;99.90
9975;DHT22;5028;50.974;4.968;2023-12-20T15:30:46;7.90;99.90
9975;DHT22;5028;50.974;4.968;2023-12-20T15:33:17;7.90;99.90
9975;DHT22;5028;50.974;4.968;2023-12-20T15:35:45;7.90;99.90
9975;DHT22;5028;50.974;4.968;2023-12-20T15:38:14;7.90;99.90
9975;DHT22;5028;50.974;4.968;2023-12-20T15:40:42;7.90;99.90
9975;DHT22;5028;50.974;4.968;2023-12-20T15:43:11;7.90;99.90
9975;DHT22;5028;50.974;4.968;2023-12-20T15:45:40;7.90;99.90
9975;DHT22;5028;50.974;4.968;2023-12-20T15:48:08;7.90;99.90
9975;DHT22;5028;50.974;4.968;2023-12-20T15:50:41;7.90;99.90
9975;DHT22;5028;50.974;4.968;2023-12-20T15:53:10;7.90;99.90
9975;DHT22;5028;50.974;4.968;2023-12-20T15:55:39;7.90;99.90
9975;DHT22;5028;50.974;4.968;2023-12-20T15:58:09;7.90;99.90
9975;DHT22;5028;50.974;4.968;2023-12-20T16:00:37;7.90;99.90
9975;DHT22;5028;50.974;4.968;2023-12-20T16:03:06;7.90;99.90
9975;DHT22;5028;50.974;4.968;2023-12-20T16:05:52;8.00;99.90
9975;DHT22;5028;50.974;4.968;2023-12-20T16:08:21;8.00;99.90
9975;DHT22;5028;50.974;4.968;2023-12-20T16:10:49;8.00;99.90
9975;DHT22;5028;50.974;4.968;2023-12-20T16:13:19;8.00;99.90
9975;DHT22;5028;50.974;4.968;2023-12-20T16:15:47;8.00;99.90
9975;DHT22;5028;50.974;4.968;2023-12-20T16:18:16;8.00;99.90
9975;DHT22;5028;50.974;4.968;2023-12-20T16:20:45;8.00;99.90
9975;DHT22;5028;50.974;4.968;2023-12-20T16:23:15;8.00;99.90
9975;DHT22;5028;50.974;4.968;2023-12-20T16:25:43;8.00;99.90
9975;DHT22;5028;50.974;4.968;2023-12-20T16:28:12;8.00;99.90
9975;DHT22;5028;50.974;4.968;2023-12-20T16:30:41;8.00;99.90
9975;DHT22;5028;50.974;4.968;2023-12-20T16:33:09;8.00;99.90